sensor_id;sensor_type;location;lat;lon;timestamp;temperature;humidity
18260;DHT22;9256;52.236;5.712;2023-07-30T00:00:49;15.30;99.90
18260;DHT22;9256;52.236;5.712;2023-07-30T00:03:16;15.20;99.90
18260;DHT22;9256;52.236;5.712;2023-07-30T00:05:50;15.20;99.90
18260;DHT22;9256;52.236;5.712;2023-07-30T00:08:17;15.10;99.90
18260;DHT22;9256;52.236;5.712;2023-07-30T00:10:44;15.10;99.90
18260;DHT22;9256;52.236;5.712;2023-07-30T00:13:13;15.10;99.90
18260;DHT22;9256;52.236;5.712;2023-07-30T00:15:39;15.10;99.90
18260;DHT22;9256;52.236;5.712;2023-07-30T00:18:06;15.00;99.90
18260;DHT22;9256;52.236;5.712;2023-07-30T00:20:34;15.00;99.90
18260;DHT22;9256;52.236;5.712;2023-07-30T00:23:01;15.00;99.90
18260;DHT22;9256;52.236;5.712;2023-07-30T00:25:28;14.90;99.90
18260;DHT22;9256;52.236;5.712;2023-07-30T00:27:55;14.90;99.90
18260;DHT22;9256;52.236;5.712;2023-07-30T00:30:23;14.90;99.90
18260;DHT22;9256;52.236;5.712;2023-07-30T00:32:50;14.90;99.90
18260;DHT22;9256;52.236;5.712;2023-07-30T00:35:17;14.90;99.90
18260;DHT22;9256;52.236;5.712;2023-07-30T00:37:44;14.80;99.90
18260;DHT22;9256;52.236;5.712;2023-07-30T00:40:12;14.80;99.90
18260;DHT22;9256;52.236;5.712;2023-07-30T00:42:39;14.80;99.90
18260;DHT22;9256;52.236;5.712;2023-07-30T00:45:07;14.80;99.90
18260;DHT22;9256;52.236;5.712;2023-07-30T00:47:37;14.80;99.90
18260;DHT22;9256;52.236;5.712;2023-07-30T00:50:05;14.80;99.90
18260;DHT22;9256;52.236;5.712;2023-07-30T00:52:32;14.70;99.90
18260;DHT22;9256;52.236;5.712;2023-07-30T00:55:01;14.70;99.90
18260;DHT22;9256;52.236;5.712;2023-07-30T00:57:29;14.70;99.90
18260;DHT22;9256;52.236;5.712;2023-07-30T00:59:57;14.70;99.90
18260;DHT22;9256;52.236;5.712;2023-07-30T01:02:24;14.70;99.90
18260;DHT22;9256;52.236;5.712;2023-07-30T01:04:53;14.70;99.90
18260;DHT22;9256;52.236;5.712;2023-07-30T01:07:22;14.70;99.90
18260;DHT22;9256;52.236;5.712;2023-07-30T01:09:49;14.70;99.90
18260;DHT22;9256;52.236;5.712;2023-07-30T01:12:16;14.60;99.90
18260;DHT22;9256;52.236;5.712;2023-07-30T01:14:44;14.60;99.90
18260;DHT22;9256;52.236;5.712;2023-07-30T01:17:12;14.60;99.90
18260;DHT22;9256;52.236;5.712;2023-07-30T01:19:39;14.50;99.90
18260;DHT22;9256;52.236;5.712;2023-07-30T01:22:07;14.60;99.90
18260;DHT22;9256;52.236;5.712;2023-07-30T01:24:34;14.50;99.90
18260;DHT22;9256;52.236;5.712;2023-07-30T01:27:04;14.60;99.90
18260;DHT22;9256;52.236;5.712;2023-07-30T01:29:36;14.50;99.90
18260;DHT22;9256;52.236;5.712;2023-07-30T01:32:07;14.60;99.90
18260;DHT22;9256;52.236;5.712;2023-07-30T01:34:35;14.50;99.90
18260;DHT22;9256;52.236;5.712;2023-07-30T01:37:04;14.50;99.90
18260;DHT22;9256;52.236;5.712;2023-07-30T01:39:34;14.60;99.90
18260;DHT22;9256;52.236;5.712;2023-07-30T01:42:04;14.60;99.90
18260;DHT22;9256;52.236;5.712;2023-07-30T01:44:31;14.60;99.90
18260;DHT22;9256;52.236;5.712;2023-07-30T01:46:58;14.60;99.90
18260;DHT22;9256;52.236;5.712;2023-07-30T01:49:25;14.60;99.90
18260;DHT22;9256;52.236;5.712;2023-07-30T01:51:51;14.60;99.90
18260;DHT22;9256;52.236;5.712;2023-07-30T01:54:18;14.60;99.90
18260;DHT22;9256;52.236;5.712;2023-07-30T01:56:47;14.70;99.90
18260;DHT22;9256;52.236;5.712;2023-07-30T01:59:13;14.70;99.90
18260;DHT22;9256;52.236;5.712;2023-07-30T02:01:40;14.80;99.90
18260;DHT22;9256;52.236;5.712;2023-07-30T02:04:07;14.70;99.90
18260;DHT22;9256;52.236;5.712;2023-07-30T02:06:34;14.80;99.90
18260;DHT22;9256;52.236;5.712;2023-07-30T02:09:02;14.80;99.90
18260;DHT22;9256;52.236;5.712;2023-07-30T02:11:29;14.90;99.90
18260;DHT22;9256;52.236;5.712;2023-07-30T02:13:57;15.00;99.90
18260;DHT22;9256;52.236;5.712;2023-07-30T02:16:24;15.00;99.90
18260;DHT22;9256;52.236;5.712;2023-07-30T02:18:51;15.00;99.90
18260;DHT22;9256;52.236;5.712;2023-07-30T02:21:18;15.00;99.90
18260;DHT22;9256;52.236;5.712;2023-07-30T02:23:45;15.10;99.90
18260;DHT22;9256;52.236;5.712;2023-07-30T02:26:11;15.10;99.90
18260;DHT22;9256;52.236;5.712;2023-07-30T02:28:38;15.10;99.90
18260;DHT22;9256;52.236;5.712;2023-07-30T02:31:07;15.10;99.90
18260;DHT22;9256;52.236;5.712;2023-07-30T02:33:33;15.20;99.90
18260;DHT22;9256;52.236;5.712;2023-07-30T02:36:00;15.20;99.90
18260;DHT22;9256;52.236;5.712;2023-07-30T02:38:27;15.20;99.90
18260;DHT22;9256;52.236;5.712;2023-07-30T02:40:54;15.20;99.90
18260;DHT22;9256;52.236;5.712;2023-07-30T02:43:21;15.20;99.90
18260;DHT22;9256;52.236;5.712;2023-07-30T02:45:48;15.20;99.90
18260;DHT22;9256;52.236;5.712;2023-07-30T02:48:17;15.20;99.90
18260;DHT22;9256;52.236;5.712;2023-07-30T02:50:44;15.20;99.90
18260;DHT22;9256;52.236;5.712;2023-07-30T02:53:11;15.20;99.90
18260;DHT22;9256;52.236;5.712;2023-07-30T02:55:38;15.10;99.90
18260;DHT22;9256;52.236;5.712;2023-07-30T02:58:05;15.20;99.90
18260;DHT22;9256;52.236;5.712;2023-07-30T03:00:32;15.20;99.90
18260;DHT22;9256;52.236;5.712;2023-07-30T03:02:59;15.10;99.90
18260;DHT22;9256;52.236;5.712;2023-07-30T03:05:27;15.20;99.90
18260;DHT22;9256;52.236;5.712;2023-07-30T03:07:54;15.20;99.90
18260;DHT22;9256;52.236;5.712;2023-07-30T03:10:21;15.20;99.90
18260;DHT22;9256;52.236;5.712;2023-07-30T03:12:48;15.30;99.90
18260;DHT22;9256;52.236;5.712;2023-07-30T03:15:15;15.30;99.90
18260;DHT22;9256;52.236;5.712;2023-07-30T03:17:42;15.30;99.90
18260;DHT22;9256;52.236;5.712;2023-07-30T03:20:09;15.30;99.90
18260;DHT22;9256;52.236;5.712;2023-07-30T03:22:38;15.30;99.90
18260;DHT22;9256;52.236;5.712;2023-07-30T03:25:05;15.30;99.90
18260;DHT22;9256;52.236;5.712;2023-07-30T03:27:32;15.20;99.90
18260;DHT22;9256;52.236;5.712;2023-07-30T03:29:59;15.20;99.90
18260;DHT22;9256;52.236;5.712;2023-07-30T03:32:26;15.10;99.90
18260;DHT22;9256;52.236;5.712;2023-07-30T03:34:53;15.10;99.90
18260;DHT22;9256;52.236;5.712;2023-07-30T03:37:20;15.10;99.90
18260;DHT22;9256;52.236;5.712;2023-07-30T03:39:48;15.10;99.90
18260;DHT22;9256;52.236;5.712;2023-07-30T03:42:15;15.10;99.90
18260;DHT22;9256;52.236;5.712;2023-07-30T03:44:42;15.00;99.90
18260;DHT22;9256;52.236;5.712;2023-07-30T03:47:09;15.00;99.90
18260;DHT22;9256;52.236;5.712;2023-07-30T03:49:36;15.00;99.90
18260;DHT22;9256;52.236;5.712;2023-07-30T03:52:03;15.00;99.90
18260;DHT22;9256;52.236;5.712;2023-07-30T03:54:30;14.90;99.90
18260;DHT22;9256;52.236;5.712;2023-07-30T03:56:58;14.90;99.90
18260;DHT22;9256;52.236;5.712;2023-07-30T03:59:26;14.90;99.90
18260;DHT22;9256;52.236;5.712;2023-07-30T04:01:54;14.90;99.90
18260;DHT22;9256;52.236;5.712;2023-07-30T04:04:21;14.90;99.90
18260;DHT22;9256;52.236;5.712;2023-07-30T04:06:48;14.90;99.90
18260;DHT22;9256;52.236;5.712;2023-07-30T04:09:14;14.80;99.90
18260;DHT22;9256;52.236;5.712;2023-07-30T04:11:41;14.80;99.90
18260;DHT22;9256;52.236;5.712;2023-07-30T04:14:10;14.90;99.90
18260;DHT22;9256;52.236;5.712;2023-07-30T04:16:36;14.90;99.90
18260;DHT22;9256;52.236;5.712;2023-07-30T04:19:03;14.80;99.90
18260;DHT22;9256;52.236;5.712;2023-07-30T04:21:30;14.90;99.90
18260;DHT22;9256;52.236;5.712;2023-07-30T04:23:57;15.00;99.90
18260;DHT22;9256;52.236;5.712;2023-07-30T04:26:24;15.00;99.90
18260;DHT22;9256;52.236;5.712;2023-07-30T04:28:51;15.10;99.90
18260;DHT22;9256;52.236;5.712;2023-07-30T04:31:19;15.20;99.90
18260;DHT22;9256;52.236;5.712;2023-07-30T04:33:46;15.20;99.90
18260;DHT22;9256;52.236;5.712;2023-07-30T04:36:13;15.20;99.90
18260;DHT22;9256;52.236;5.712;2023-07-30T04:38:40;15.20;99.90
18260;DHT22;9256;52.236;5.712;2023-07-30T04:41:07;15.20;99.90
18260;DHT22;9256;52.236;5.712;2023-07-30T04:43:34;15.30;99.90
18260;DHT22;9256;52.236;5.712;2023-07-30T04:46:00;15.30;99.90
18260;DHT22;9256;52.236;5.712;2023-07-30T04:48:29;15.40;99.90
18260;DHT22;9256;52.236;5.712;2023-07-30T04:50:56;15.40;99.90
18260;DHT22;9256;52.236;5.712;2023-07-30T04:53:23;15.60;99.90
18260;DHT22;9256;52.236;5.712;2023-07-30T04:55:55;15.50;99.90
18260;DHT22;9256;52.236;5.712;2023-07-30T04:58:22;15.60;99.90
18260;DHT22;9256;52.236;5.712;2023-07-30T05:00:48;15.70;99.90
18260;DHT22;9256;52.236;5.712;2023-07-30T05:03:15;15.80;99.90
18260;DHT22;9256;52.236;5.712;2023-07-30T05:05:44;15.70;99.90
18260;DHT22;9256;52.236;5.712;2023-07-30T05:08:11;15.80;99.90
18260;DHT22;9256;52.236;5.712;2023-07-30T05:10:38;15.80;99.90
18260;DHT22;9256;52.236;5.712;2023-07-30T05:13:04;15.80;99.90
18260;DHT22;9256;52.236;5.712;2023-07-30T05:15:32;15.90;99.90
18260;DHT22;9256;52.236;5.712;2023-07-30T05:17:59;16.00;99.90
18260;DHT22;9256;52.236;5.712;2023-07-30T05:20:28;16.00;99.90
18260;DHT22;9256;52.236;5.712;2023-07-30T05:22:57;16.00;99.90
18260;DHT22;9256;52.236;5.712;2023-07-30T05:25:24;16.10;99.90
18260;DHT22;9256;52.236;5.712;2023-07-30T05:27:50;16.10;99.90
18260;DHT22;9256;52.236;5.712;2023-07-30T05:30:20;16.20;99.90
18260;DHT22;9256;52.236;5.712;2023-07-30T05:32:47;16.20;99.90
18260;DHT22;9256;52.236;5.712;2023-07-30T05:35:14;16.20;99.90
18260;DHT22;9256;52.236;5.712;2023-07-30T05:37:45;16.30;99.90
18260;DHT22;9256;52.236;5.712;2023-07-30T05:40:13;16.30;99.90
18260;DHT22;9256;52.236;5.712;2023-07-30T05:42:40;16.40;99.90
18260;DHT22;9256;52.236;5.712;2023-07-30T05:45:08;16.40;99.90
18260;DHT22;9256;52.236;5.712;2023-07-30T05:47:35;16.50;99.90
18260;DHT22;9256;52.236;5.712;2023-07-30T05:50:03;16.50;99.90
18260;DHT22;9256;52.236;5.712;2023-07-30T05:52:32;16.60;99.90
18260;DHT22;9256;52.236;5.712;2023-07-30T05:54:59;16.60;99.90
18260;DHT22;9256;52.236;5.712;2023-07-30T05:57:28;16.60;99.90
18260;DHT22;9256;52.236;5.712;2023-07-30T05:59:54;16.70;99.90
18260;DHT22;9256;52.236;5.712;2023-07-30T06:02:21;16.70;99.90
18260;DHT22;9256;52.236;5.712;2023-07-30T06:04:48;16.80;99.90
18260;DHT22;9256;52.236;5.712;2023-07-30T06:07:15;16.90;99.90
18260;DHT22;9256;52.236;5.712;2023-07-30T06:09:42;17.00;99.90
18260;DHT22;9256;52.236;5.712;2023-07-30T06:12:11;17.20;99.90
18260;DHT22;9256;52.236;5.712;2023-07-30T06:14:39;17.30;99.90
18260;DHT22;9256;52.236;5.712;2023-07-30T06:17:06;17.40;99.90
18260;DHT22;9256;52.236;5.712;2023-07-30T06:19:33;17.40;99.90
18260;DHT22;9256;52.236;5.712;2023-07-30T06:22:00;17.60;99.90
18260;DHT22;9256;52.236;5.712;2023-07-30T06:24:26;17.60;99.90
18260;DHT22;9256;52.236;5.712;2023-07-30T06:26:53;17.70;99.90
18260;DHT22;9256;52.236;5.712;2023-07-30T06:29:20;17.70;99.90
18260;DHT22;9256;52.236;5.712;2023-07-30T06:31:48;17.70;99.90
18260;DHT22;9256;52.236;5.712;2023-07-30T06:34:15;17.70;99.90
18260;DHT22;9256;52.236;5.712;2023-07-30T06:36:42;17.70;99.90
18260;DHT22;9256;52.236;5.712;2023-07-30T06:39:09;17.80;99.90
18260;DHT22;9256;52.236;5.712;2023-07-30T06:41:36;17.80;99.90
18260;DHT22;9256;52.236;5.712;2023-07-30T06:44:03;17.90;99.90
18260;DHT22;9256;52.236;5.712;2023-07-30T06:46:30;17.90;99.90
18260;DHT22;9256;52.236;5.712;2023-07-30T06:48:58;17.90;99.90
18260;DHT22;9256;52.236;5.712;2023-07-30T06:51:28;18.00;99.90
18260;DHT22;9256;52.236;5.712;2023-07-30T06:53:55;17.90;99.90
18260;DHT22;9256;52.236;5.712;2023-07-30T06:56:22;17.90;99.90
18260;DHT22;9256;52.236;5.712;2023-07-30T06:58:49;17.90;99.90
18260;DHT22;9256;52.236;5.712;2023-07-30T07:01:16;17.90;99.90
18260;DHT22;9256;52.236;5.712;2023-07-30T07:03:43;17.80;99.90
18260;DHT22;9256;52.236;5.712;2023-07-30T07:06:11;17.80;99.90
18260;DHT22;9256;52.236;5.712;2023-07-30T07:08:38;17.80;99.90
18260;DHT22;9256;52.236;5.712;2023-07-30T07:11:05;17.70;99.90
18260;DHT22;9256;52.236;5.712;2023-07-30T07:13:32;17.70;99.90
18260;DHT22;9256;52.236;5.712;2023-07-30T07:15:59;17.70;99.90
18260;DHT22;9256;52.236;5.712;2023-07-30T07:18:25;17.80;99.90
18260;DHT22;9256;52.236;5.712;2023-07-30T07:20:52;17.90;99.90
18260;DHT22;9256;52.236;5.712;2023-07-30T07:23:21;18.00;99.90
18260;DHT22;9256;52.236;5.712;2023-07-30T07:25:47;17.90;99.90
18260;DHT22;9256;52.236;5.712;2023-07-30T07:28:14;17.80;99.90
18260;DHT22;9256;52.236;5.712;2023-07-30T07:30:42;17.80;99.90
18260;DHT22;9256;52.236;5.712;2023-07-30T07:33:10;17.80;99.90
18260;DHT22;9256;52.236;5.712;2023-07-30T07:35:38;17.90;99.90
18260;DHT22;9256;52.236;5.712;2023-07-30T07:38:05;18.00;99.90
18260;DHT22;9256;52.236;5.712;2023-07-30T07:40:37;18.30;99.90
18260;DHT22;9256;52.236;5.712;2023-07-30T07:43:06;18.40;99.90
18260;DHT22;9256;52.236;5.712;2023-07-30T07:45:32;18.40;99.90
18260;DHT22;9256;52.236;5.712;2023-07-30T07:47:59;18.50;99.90
18260;DHT22;9256;52.236;5.712;2023-07-30T07:50:26;18.60;99.90
18260;DHT22;9256;52.236;5.712;2023-07-30T07:52:53;18.80;99.90
18260;DHT22;9256;52.236;5.712;2023-07-30T07:55:20;19.00;99.90
18260;DHT22;9256;52.236;5.712;2023-07-30T07:57:48;19.20;99.90
18260;DHT22;9256;52.236;5.712;2023-07-30T08:00:16;19.30;99.90
18260;DHT22;9256;52.236;5.712;2023-07-30T08:02:43;19.30;99.90
18260;DHT22;9256;52.236;5.712;2023-07-30T08:05:10;19.30;99.90
18260;DHT22;9256;52.236;5.712;2023-07-30T08:07:37;19.50;99.90
18260;DHT22;9256;52.236;5.712;2023-07-30T08:10:05;19.90;99.90
18260;DHT22;9256;52.236;5.712;2023-07-30T08:12:32;19.90;99.90
18260;DHT22;9256;52.236;5.712;2023-07-30T08:15:00;19.70;99.90
18260;DHT22;9256;52.236;5.712;2023-07-30T08:17:27;19.40;99.90
18260;DHT22;9256;52.236;5.712;2023-07-30T08:19:54;19.30;99.90
18260;DHT22;9256;52.236;5.712;2023-07-30T08:22:21;19.10;99.90
18260;DHT22;9256;52.236;5.712;2023-07-30T08:24:48;18.90;99.90
18260;DHT22;9256;52.236;5.712;2023-07-30T08:27:15;18.90;99.90
18260;DHT22;9256;52.236;5.712;2023-07-30T08:29:42;18.80;99.90
18260;DHT22;9256;52.236;5.712;2023-07-30T08:32:11;18.90;99.90
18260;DHT22;9256;52.236;5.712;2023-07-30T08:34:38;18.90;99.90
18260;DHT22;9256;52.236;5.712;2023-07-30T08:37:05;18.70;99.90
18260;DHT22;9256;52.236;5.712;2023-07-30T08:39:32;18.70;99.90
18260;DHT22;9256;52.236;5.712;2023-07-30T08:41:59;18.70;99.90
18260;DHT22;9256;52.236;5.712;2023-07-30T08:44:26;18.60;99.90
18260;DHT22;9256;52.236;5.712;2023-07-30T08:46:53;18.60;99.90
18260;DHT22;9256;52.236;5.712;2023-07-30T08:49:21;18.40;99.90
18260;DHT22;9256;52.236;5.712;2023-07-30T08:51:52;18.30;99.90
18260;DHT22;9256;52.236;5.712;2023-07-30T08:54:20;18.10;99.90
18260;DHT22;9256;52.236;5.712;2023-07-30T08:56:49;17.90;99.90
18260;DHT22;9256;52.236;5.712;2023-07-30T08:59:18;17.70;99.90
18260;DHT22;9256;52.236;5.712;2023-07-30T09:01:45;17.50;99.90
18260;DHT22;9256;52.236;5.712;2023-07-30T09:04:16;17.50;99.90
18260;DHT22;9256;52.236;5.712;2023-07-30T09:06:48;17.60;99.90
18260;DHT22;9256;52.236;5.712;2023-07-30T09:09:15;17.80;99.90
18260;DHT22;9256;52.236;5.712;2023-07-30T09:11:42;17.90;99.90
18260;DHT22;9256;52.236;5.712;2023-07-30T09:14:09;18.00;99.90
18260;DHT22;9256;52.236;5.712;2023-07-30T09:16:36;18.20;99.90
18260;DHT22;9256;52.236;5.712;2023-07-30T09:19:06;18.30;99.90
18260;DHT22;9256;52.236;5.712;2023-07-30T09:21:34;18.50;99.90
18260;DHT22;9256;52.236;5.712;2023-07-30T09:24:03;18.60;99.90
18260;DHT22;9256;52.236;5.712;2023-07-30T09:26:41;19.10;99.90
18260;DHT22;9256;52.236;5.712;2023-07-30T09:29:09;19.90;99.90
18260;DHT22;9256;52.236;5.712;2023-07-30T09:31:49;20.40;99.90
18260;DHT22;9256;52.236;5.712;2023-07-30T09:34:20;20.40;99.90
18260;DHT22;9256;52.236;5.712;2023-07-30T09:36:49;20.00;99.90
18260;DHT22;9256;52.236;5.712;2023-07-30T09:39:20;19.60;99.90
18260;DHT22;9256;52.236;5.712;2023-07-30T09:41:47;19.40;99.90
18260;DHT22;9256;52.236;5.712;2023-07-30T09:44:16;19.40;99.90
18260;DHT22;9256;52.236;5.712;2023-07-30T09:46:45;19.50;99.90
18260;DHT22;9256;52.236;5.712;2023-07-30T09:49:12;19.50;99.90
18260;DHT22;9256;52.236;5.712;2023-07-30T09:51:39;19.60;99.90
18260;DHT22;9256;52.236;5.712;2023-07-30T09:54:07;19.70;99.90
18260;DHT22;9256;52.236;5.712;2023-07-30T09:56:37;20.00;99.90
18260;DHT22;9256;52.236;5.712;2023-07-30T09:59:04;19.70;99.90
18260;DHT22;9256;52.236;5.712;2023-07-30T10:01:33;19.60;99.90
18260;DHT22;9256;52.236;5.712;2023-07-30T10:04:07;19.50;99.90
18260;DHT22;9256;52.236;5.712;2023-07-30T10:06:37;19.40;99.90
18260;DHT22;9256;52.236;5.712;2023-07-30T10:09:07;19.90;99.90
18260;DHT22;9256;52.236;5.712;2023-07-30T10:11:37;20.30;99.90
18260;DHT22;9256;52.236;5.712;2023-07-30T10:14:06;20.70;99.90
18260;DHT22;9256;52.236;5.712;2023-07-30T10:16:33;21.00;99.90
18260;DHT22;9256;52.236;5.712;2023-07-30T10:19:00;21.40;99.90
18260;DHT22;9256;52.236;5.712;2023-07-30T10:21:28;21.70;99.90
18260;DHT22;9256;52.236;5.712;2023-07-30T10:24:00;21.90;99.90
18260;DHT22;9256;52.236;5.712;2023-07-30T10:26:29;21.80;99.90
18260;DHT22;9256;52.236;5.712;2023-07-30T10:29:14;21.30;99.90
18260;DHT22;9256;52.236;5.712;2023-07-30T10:31:42;21.20;99.90
18260;DHT22;9256;52.236;5.712;2023-07-30T10:34:10;21.10;99.90
18260;DHT22;9256;52.236;5.712;2023-07-30T10:36:42;20.80;99.90
18260;DHT22;9256;52.236;5.712;2023-07-30T10:39:15;20.50;99.90
18260;DHT22;9256;52.236;5.712;2023-07-30T10:41:44;20.50;99.90
18260;DHT22;9256;52.236;5.712;2023-07-30T10:44:26;20.50;99.90
18260;DHT22;9256;52.236;5.712;2023-07-30T10:46:54;20.40;99.90
18260;DHT22;9256;52.236;5.712;2023-07-30T10:49:21;20.90;99.90
18260;DHT22;9256;52.236;5.712;2023-07-30T10:51:50;21.10;99.90
18260;DHT22;9256;52.236;5.712;2023-07-30T10:54:17;20.80;99.90
18260;DHT22;9256;52.236;5.712;2023-07-30T10:56:44;20.60;99.90
18260;DHT22;9256;52.236;5.712;2023-07-30T10:59:13;20.40;99.90
18260;DHT22;9256;52.236;5.712;2023-07-30T11:01:43;20.20;99.90
18260;DHT22;9256;52.236;5.712;2023-07-30T11:04:12;19.90;99.90
18260;DHT22;9256;52.236;5.712;2023-07-30T11:06:45;20.30;99.90
18260;DHT22;9256;52.236;5.712;2023-07-30T11:09:18;21.10;99.90
18260;DHT22;9256;52.236;5.712;2023-07-30T11:11:46;21.60;99.90
18260;DHT22;9256;52.236;5.712;2023-07-30T11:14:15;21.60;99.90
18260;DHT22;9256;52.236;5.712;2023-07-30T11:16:49;21.40;99.90
18260;DHT22;9256;52.236;5.712;2023-07-30T11:19:16;21.00;99.90
18260;DHT22;9256;52.236;5.712;2023-07-30T11:21:47;20.60;99.90
18260;DHT22;9256;52.236;5.712;2023-07-30T11:24:14;20.20;99.90
18260;DHT22;9256;52.236;5.712;2023-07-30T11:26:41;20.40;99.90
18260;DHT22;9256;52.236;5.712;2023-07-30T11:29:15;20.50;99.90
18260;DHT22;9256;52.236;5.712;2023-07-30T11:31:43;20.70;99.90
18260;DHT22;9256;52.236;5.712;2023-07-30T11:34:12;20.70;99.90
18260;DHT22;9256;52.236;5.712;2023-07-30T11:36:40;21.10;99.90
18260;DHT22;9256;52.236;5.712;2023-07-30T11:39:07;21.10;99.90
18260;DHT22;9256;52.236;5.712;2023-07-30T11:41:35;21.00;99.90
18260;DHT22;9256;52.236;5.712;2023-07-30T11:44:04;20.70;99.90
18260;DHT22;9256;52.236;5.712;2023-07-30T11:46:31;20.50;99.90
18260;DHT22;9256;52.236;5.712;2023-07-30T11:49:12;20.40;99.90
18260;DHT22;9256;52.236;5.712;2023-07-30T11:51:40;20.40;99.90
18260;DHT22;9256;52.236;5.712;2023-07-30T11:54:07;20.40;99.90
18260;DHT22;9256;52.236;5.712;2023-07-30T11:56:35;20.30;99.90
18260;DHT22;9256;52.236;5.712;2023-07-30T11:59:05;20.30;99.90
18260;DHT22;9256;52.236;5.712;2023-07-30T12:01:33;20.30;99.90
18260;DHT22;9256;52.236;5.712;2023-07-30T12:04:02;20.50;99.90
18260;DHT22;9256;52.236;5.712;2023-07-30T12:06:40;21.40;99.90
18260;DHT22;9256;52.236;5.712;2023-07-30T12:09:11;22.40;99.90
18260;DHT22;9256;52.236;5.712;2023-07-30T12:11:45;22.80;99.90
18260;DHT22;9256;52.236;5.712;2023-07-30T12:14:12;23.30;99.90
18260;DHT22;9256;52.236;5.712;2023-07-30T12:16:39;23.60;99.90
18260;DHT22;9256;52.236;5.712;2023-07-30T12:19:06;23.10;99.90
18260;DHT22;9256;52.236;5.712;2023-07-30T12:21:33;22.50;99.90
18260;DHT22;9256;52.236;5.712;2023-07-30T12:24:01;22.40;99.90
18260;DHT22;9256;52.236;5.712;2023-07-30T12:26:29;22.20;99.90
18260;DHT22;9256;52.236;5.712;2023-07-30T12:28:56;22.70;99.90
18260;DHT22;9256;52.236;5.712;2023-07-30T12:31:23;22.70;99.90
18260;DHT22;9256;52.236;5.712;2023-07-30T12:33:50;22.60;99.90
18260;DHT22;9256;52.236;5.712;2023-07-30T12:36:16;22.70;99.90
18260;DHT22;9256;52.236;5.712;2023-07-30T12:38:43;22.50;99.90
18260;DHT22;9256;52.236;5.712;2023-07-30T12:41:12;21.90;99.90
18260;DHT22;9256;52.236;5.712;2023-07-30T12:43:39;21.50;99.90
18260;DHT22;9256;52.236;5.712;2023-07-30T12:46:05;21.50;99.90
18260;DHT22;9256;52.236;5.712;2023-07-30T12:48:32;21.30;99.90
18260;DHT22;9256;52.236;5.712;2023-07-30T12:50:59;21.10;99.90
18260;DHT22;9256;52.236;5.712;2023-07-30T12:53:26;21.50;99.90
18260;DHT22;9256;52.236;5.712;2023-07-30T12:55:53;22.40;99.90
18260;DHT22;9256;52.236;5.712;2023-07-30T12:58:22;22.70;99.90
18260;DHT22;9256;52.236;5.712;2023-07-30T13:00:49;22.20;99.90
18260;DHT22;9256;52.236;5.712;2023-07-30T13:03:16;21.70;99.90
18260;DHT22;9256;52.236;5.712;2023-07-30T13:05:43;21.70;99.90
18260;DHT22;9256;52.236;5.712;2023-07-30T13:08:10;22.20;99.90
18260;DHT22;9256;52.236;5.712;2023-07-30T13:10:37;23.20;99.90
18260;DHT22;9256;52.236;5.712;2023-07-30T13:13:04;23.60;99.90
18260;DHT22;9256;52.236;5.712;2023-07-30T13:15:32;23.80;99.90
18260;DHT22;9256;52.236;5.712;2023-07-30T13:17:59;23.40;99.90
18260;DHT22;9256;52.236;5.712;2023-07-30T13:20:26;22.80;99.90
18260;DHT22;9256;52.236;5.712;2023-07-30T13:22:53;23.80;99.90
18260;DHT22;9256;52.236;5.712;2023-07-30T13:25:19;23.90;99.90
18260;DHT22;9256;52.236;5.712;2023-07-30T13:27:46;23.50;99.90
18260;DHT22;9256;52.236;5.712;2023-07-30T13:30:13;24.00;99.90
18260;DHT22;9256;52.236;5.712;2023-07-30T13:32:42;24.00;99.90
18260;DHT22;9256;52.236;5.712;2023-07-30T13:35:09;23.10;99.90
18260;DHT22;9256;52.236;5.712;2023-07-30T13:37:35;22.50;99.90
18260;DHT22;9256;52.236;5.712;2023-07-30T13:40:06;21.90;99.90
18260;DHT22;9256;52.236;5.712;2023-07-30T13:42:33;21.50;99.90
18260;DHT22;9256;52.236;5.712;2023-07-30T13:45:00;21.30;99.90
18260;DHT22;9256;52.236;5.712;2023-07-30T13:47:27;21.00;99.90
18260;DHT22;9256;52.236;5.712;2023-07-30T13:49:55;20.80;99.90
18260;DHT22;9256;52.236;5.712;2023-07-30T13:52:22;20.70;99.90
18260;DHT22;9256;52.236;5.712;2023-07-30T13:54:49;20.70;99.90
18260;DHT22;9256;52.236;5.712;2023-07-30T13:57:22;20.60;99.90
18260;DHT22;9256;52.236;5.712;2023-07-30T13:59:50;21.30;99.90
18260;DHT22;9256;52.236;5.712;2023-07-30T14:02:16;22.10;99.90
18260;DHT22;9256;52.236;5.712;2023-07-30T14:04:44;21.90;99.90
18260;DHT22;9256;52.236;5.712;2023-07-30T14:07:12;21.60;99.90
18260;DHT22;9256;52.236;5.712;2023-07-30T14:09:39;21.30;99.90
18260;DHT22;9256;52.236;5.712;2023-07-30T14:12:07;21.10;99.90
18260;DHT22;9256;52.236;5.712;2023-07-30T14:14:34;20.90;99.90
18260;DHT22;9256;52.236;5.712;2023-07-30T14:17:01;20.80;99.90
18260;DHT22;9256;52.236;5.712;2023-07-30T14:19:32;21.30;99.90
18260;DHT22;9256;52.236;5.712;2023-07-30T14:21:59;21.90;99.90
18260;DHT22;9256;52.236;5.712;2023-07-30T14:24:27;22.20;99.90
18260;DHT22;9256;52.236;5.712;2023-07-30T14:26:55;22.30;99.90
18260;DHT22;9256;52.236;5.712;2023-07-30T14:29:22;22.20;99.90
18260;DHT22;9256;52.236;5.712;2023-07-30T14:31:49;22.10;99.90
18260;DHT22;9256;52.236;5.712;2023-07-30T14:34:16;22.00;99.90
18260;DHT22;9256;52.236;5.712;2023-07-30T14:36:43;21.80;99.90
18260;DHT22;9256;52.236;5.712;2023-07-30T14:39:10;21.60;99.90
18260;DHT22;9256;52.236;5.712;2023-07-30T14:41:39;21.50;99.90
18260;DHT22;9256;52.236;5.712;2023-07-30T14:44:05;21.50;99.90
18260;DHT22;9256;52.236;5.712;2023-07-30T14:46:32;21.70;99.90
18260;DHT22;9256;52.236;5.712;2023-07-30T14:48:59;21.80;99.90
18260;DHT22;9256;52.236;5.712;2023-07-30T14:51:27;21.90;99.90
18260;DHT22;9256;52.236;5.712;2023-07-30T14:53:54;21.90;99.90
18260;DHT22;9256;52.236;5.712;2023-07-30T14:56:21;21.80;99.90
18260;DHT22;9256;52.236;5.712;2023-07-30T14:58:49;21.60;99.90
18260;DHT22;9256;52.236;5.712;2023-07-30T15:01:16;21.40;99.90
18260;DHT22;9256;52.236;5.712;2023-07-30T15:03:43;21.10;99.90
18260;DHT22;9256;52.236;5.712;2023-07-30T15:06:11;20.70;99.90
18260;DHT22;9256;52.236;5.712;2023-07-30T15:08:38;20.50;99.90
18260;DHT22;9256;52.236;5.712;2023-07-30T15:11:05;20.20;99.90
18260;DHT22;9256;52.236;5.712;2023-07-30T15:13:32;20.10;99.90
18260;DHT22;9256;52.236;5.712;2023-07-30T15:16:00;19.90;99.90
18260;DHT22;9256;52.236;5.712;2023-07-30T15:18:27;19.90;99.90
18260;DHT22;9256;52.236;5.712;2023-07-30T15:20:54;19.90;99.90
18260;DHT22;9256;52.236;5.712;2023-07-30T15:23:21;19.90;99.90
18260;DHT22;9256;52.236;5.712;2023-07-30T15:25:48;19.80;99.90
18260;DHT22;9256;52.236;5.712;2023-07-30T15:28:16;19.80;99.90
18260;DHT22;9256;52.236;5.712;2023-07-30T15:30:43;19.90;99.90
18260;DHT22;9256;52.236;5.712;2023-07-30T15:33:12;19.80;99.90
18260;DHT22;9256;52.236;5.712;2023-07-30T15:35:39;19.80;99.90
18260;DHT22;9256;52.236;5.712;2023-07-30T15:38:06;19.70;99.90
18260;DHT22;9256;52.236;5.712;2023-07-30T15:40:33;19.70;99.90
18260;DHT22;9256;52.236;5.712;2023-07-30T15:43:01;19.80;99.90
18260;DHT22;9256;52.236;5.712;2023-07-30T15:45:28;20.10;99.90
18260;DHT22;9256;52.236;5.712;2023-07-30T15:47:55;20.30;99.90